sensor_id;sensor_type;location;lat;lon;timestamp;temperature;humidity
7000;DHT22;3540;53.242;10.408;2023-10-13T00:01:08;12.50;99.90
7000;DHT22;3540;53.242;10.408;2023-10-13T00:03:37;12.50;99.90
7000;DHT22;3540;53.242;10.408;2023-10-13T00:06:02;12.50;99.90
7000;DHT22;3540;53.242;10.408;2023-10-13T00:08:29;12.50;99.90
7000;DHT22;3540;53.242;10.408;2023-10-13T00:10:55;12.60;99.90
7000;DHT22;3540;53.242;10.408;2023-10-13T00:13:28;12.60;99.90
7000;DHT22;3540;53.242;10.408;2023-10-13T00:15:54;12.60;99.90
7000;DHT22;3540;53.242;10.408;2023-10-13T00:18:30;12.60;99.90
7000;DHT22;3540;53.242;10.408;2023-10-13T00:21:02;12.60;99.90
7000;DHT22;3540;53.242;10.408;2023-10-13T00:23:38;12.60;99.90
7000;DHT22;3540;53.242;10.408;2023-10-13T00:26:04;12.60;99.90
7000;DHT22;3540;53.242;10.408;2023-10-13T00:28:34;12.70;99.90
7000;DHT22;3540;53.242;10.408;2023-10-13T00:31:12;12.70;99.90
7000;DHT22;3540;53.242;10.408;2023-10-13T00:33:40;12.70;99.90
7000;DHT22;3540;53.242;10.408;2023-10-13T00:36:12;12.70;99.90
7000;DHT22;3540;53.242;10.408;2023-10-13T00:38:44;12.70;99.90
7000;DHT22;3540;53.242;10.408;2023-10-13T00:41:14;12.80;99.90
7000;DHT22;3540;53.242;10.408;2023-10-13T00:43:47;12.70;99.90
7000;DHT22;3540;53.242;10.408;2023-10-13T00:46:34;12.80;99.90
7000;DHT22;3540;53.242;10.408;2023-10-13T00:49:01;12.80;99.90
7000;DHT22;3540;53.242;10.408;2023-10-13T00:51:30;12.80;99.90
7000;DHT22;3540;53.242;10.408;2023-10-13T00:54:06;12.80;99.90
7000;DHT22;3540;53.242;10.408;2023-10-13T00:56:38;12.80;99.90
7000;DHT22;3540;53.242;10.408;2023-10-13T00:59:06;12.80;99.90
7000;DHT22;3540;53.242;10.408;2023-10-13T01:01:35;12.80;99.90
7000;DHT22;3540;53.242;10.408;2023-10-13T01:04:02;12.80;99.90
7000;DHT22;3540;53.242;10.408;2023-10-13T01:06:30;12.90;99.90
7000;DHT22;3540;53.242;10.408;2023-10-13T01:09:04;12.90;99.90
7000;DHT22;3540;53.242;10.408;2023-10-13T01:11:43;12.90;99.90
7000;DHT22;3540;53.242;10.408;2023-10-13T01:14:13;12.90;99.90
7000;DHT22;3540;53.242;10.408;2023-10-13T01:16:43;13.00;99.90
7000;DHT22;3540;53.242;10.408;2023-10-13T01:19:13;13.00;99.90
7000;DHT22;3540;53.242;10.408;2023-10-13T01:21:39;13.00;99.90
7000;DHT22;3540;53.242;10.408;2023-10-13T01:24:13;13.00;99.90
7000;DHT22;3540;53.242;10.408;2023-10-13T01:26:43;13.00;99.90
7000;DHT22;3540;53.242;10.408;2023-10-13T01:29:09;13.10;99.90
7000;DHT22;3540;53.242;10.408;2023-10-13T01:31:42;13.10;99.90
7000;DHT22;3540;53.242;10.408;2023-10-13T01:34:18;13.10;99.90
7000;DHT22;3540;53.242;10.408;2023-10-13T01:36:56;13.10;99.90
7000;DHT22;3540;53.242;10.408;2023-10-13T01:39:23;13.10;99.90
7000;DHT22;3540;53.242;10.408;2023-10-13T01:41:54;13.20;99.90
7000;DHT22;3540;53.242;10.408;2023-10-13T01:44:27;13.20;99.90
7000;DHT22;3540;53.242;10.408;2023-10-13T01:46:59;13.20;99.90
7000;DHT22;3540;53.242;10.408;2023-10-13T01:49:34;13.20;99.90
7000;DHT22;3540;53.242;10.408;2023-10-13T01:52:13;13.20;99.90
7000;DHT22;3540;53.242;10.408;2023-10-13T01:54:44;13.30;99.90
7000;DHT22;3540;53.242;10.408;2023-10-13T01:57:11;13.30;99.90
7000;DHT22;3540;53.242;10.408;2023-10-13T01:59:46;13.30;99.90
7000;DHT22;3540;53.242;10.408;2023-10-13T02:02:13;13.30;99.90
7000;DHT22;3540;53.242;10.408;2023-10-13T02:04:40;13.30;99.90
7000;DHT22;3540;53.242;10.408;2023-10-13T02:07:15;13.30;99.90
7000;DHT22;3540;53.242;10.408;2023-10-13T02:09:42;13.30;99.90
7000;DHT22;3540;53.242;10.408;2023-10-13T02:12:08;13.30;99.90
7000;DHT22;3540;53.242;10.408;2023-10-13T02:14:35;13.40;99.90
7000;DHT22;3540;53.242;10.408;2023-10-13T02:17:03;13.40;99.90
7000;DHT22;3540;53.242;10.408;2023-10-13T02:19:39;13.40;99.90
7000;DHT22;3540;53.242;10.408;2023-10-13T02:22:09;13.30;99.90
7000;DHT22;3540;53.242;10.408;2023-10-13T02:24:36;13.40;99.90
7000;DHT22;3540;53.242;10.408;2023-10-13T02:27:06;13.40;99.90
7000;DHT22;3540;53.242;10.408;2023-10-13T02:29:41;13.40;99.90
7000;DHT22;3540;53.242;10.408;2023-10-13T02:32:11;13.40;99.90
7000;DHT22;3540;53.242;10.408;2023-10-13T02:34:44;13.40;99.90
7000;DHT22;3540;53.242;10.408;2023-10-13T02:37:11;13.40;99.90
7000;DHT22;3540;53.242;10.408;2023-10-13T02:39:37;13.40;99.90
7000;DHT22;3540;53.242;10.408;2023-10-13T02:42:07;13.50;99.90
7000;DHT22;3540;53.242;10.408;2023-10-13T02:44:35;13.50;99.90
7000;DHT22;3540;53.242;10.408;2023-10-13T02:47:06;13.50;99.90
7000;DHT22;3540;53.242;10.408;2023-10-13T02:49:39;13.50;99.90
7000;DHT22;3540;53.242;10.408;2023-10-13T02:52:09;13.50;99.90
7000;DHT22;3540;53.242;10.408;2023-10-13T02:54:38;13.60;99.90
7000;DHT22;3540;53.242;10.408;2023-10-13T02:57:13;13.60;99.90
7000;DHT22;3540;53.242;10.408;2023-10-13T02:59:41;13.60;99.90
7000;DHT22;3540;53.242;10.408;2023-10-13T03:02:12;13.60;99.90
7000;DHT22;3540;53.242;10.408;2023-10-13T03:04:52;13.60;99.90
7000;DHT22;3540;53.242;10.408;2023-10-13T03:07:18;13.60;99.90
7000;DHT22;3540;53.242;10.408;2023-10-13T03:09:54;13.60;99.90
7000;DHT22;3540;53.242;10.408;2023-10-13T03:12:24;13.60;99.90
7000;DHT22;3540;53.242;10.408;2023-10-13T03:14:58;13.60;99.90
7000;DHT22;3540;53.242;10.408;2023-10-13T03:17:38;13.70;99.90
7000;DHT22;3540;53.242;10.408;2023-10-13T03:20:17;13.70;99.90
7000;DHT22;3540;53.242;10.408;2023-10-13T03:22:48;13.70;99.90
7000;DHT22;3540;53.242;10.408;2023-10-13T03:25:18;13.70;99.90
7000;DHT22;3540;53.242;10.408;2023-10-13T03:28:04;13.70;99.90
7000;DHT22;3540;53.242;10.408;2023-10-13T03:30:31;13.80;99.90
7000;DHT22;3540;53.242;10.408;2023-10-13T03:33:07;13.80;99.90
7000;DHT22;3540;53.242;10.408;2023-10-13T03:35:51;13.80;99.90
7000;DHT22;3540;53.242;10.408;2023-10-13T03:38:20;13.80;99.90
7000;DHT22;3540;53.242;10.408;2023-10-13T03:40:50;13.80;99.90
7000;DHT22;3540;53.242;10.408;2023-10-13T03:43:33;13.90;99.90
7000;DHT22;3540;53.242;10.408;2023-10-13T03:46:03;13.90;99.90
7000;DHT22;3540;53.242;10.408;2023-10-13T03:48:33;13.90;99.90
7000;DHT22;3540;53.242;10.408;2023-10-13T03:51:06;14.00;99.90
7000;DHT22;3540;53.242;10.408;2023-10-13T03:53:42;14.00;99.90
7000;DHT22;3540;53.242;10.408;2023-10-13T03:56:21;14.00;99.90
7000;DHT22;3540;53.242;10.408;2023-10-13T03:58:58;14.00;99.90
7000;DHT22;3540;53.242;10.408;2023-10-13T04:01:30;14.00;99.90
7000;DHT22;3540;53.242;10.408;2023-10-13T04:03:58;14.10;99.90
7000;DHT22;3540;53.242;10.408;2023-10-13T04:06:35;14.10;99.90
7000;DHT22;3540;53.242;10.408;2023-10-13T04:09:16;14.20;99.90
7000;DHT22;3540;53.242;10.408;2023-10-13T04:11:51;14.20;99.90
7000;DHT22;3540;53.242;10.408;2023-10-13T04:17:14;14.30;99.90
7000;DHT22;3540;53.242;10.408;2023-10-13T04:19:40;14.30;99.90
7000;DHT22;3540;53.242;10.408;2023-10-13T04:25:25;14.50;99.90
7000;DHT22;3540;53.242;10.408;2023-10-13T04:28:04;14.60;99.90
7000;DHT22;3540;53.242;10.408;2023-10-13T04:36:28;14.80;99.90
7000;DHT22;3540;53.242;10.408;2023-10-13T04:38:55;14.90;99.90
7000;DHT22;3540;53.242;10.408;2023-10-13T04:41:24;15.00;99.90
7000;DHT22;3540;53.242;10.408;2023-10-13T04:43:50;15.00;99.90
7000;DHT22;3540;53.242;10.408;2023-10-13T04:46:23;15.10;99.90
7000;DHT22;3540;53.242;10.408;2023-10-13T04:49:20;15.10;99.90
7000;DHT22;3540;53.242;10.408;2023-10-13T04:52:02;15.20;99.90
7000;DHT22;3540;53.242;10.408;2023-10-13T04:54:48;15.20;99.90
7000;DHT22;3540;53.242;10.408;2023-10-13T04:57:22;15.20;99.90
7000;DHT22;3540;53.242;10.408;2023-10-13T05:00:07;15.30;99.90
7000;DHT22;3540;53.242;10.408;2023-10-13T05:02:36;15.30;99.90
7000;DHT22;3540;53.242;10.408;2023-10-13T05:05:08;15.40;99.90
7000;DHT22;3540;53.242;10.408;2023-10-13T05:07:40;15.40;99.90
7000;DHT22;3540;53.242;10.408;2023-10-13T05:10:25;15.40;99.90
7000;DHT22;3540;53.242;10.408;2023-10-13T05:13:09;15.40;99.90
7000;DHT22;3540;53.242;10.408;2023-10-13T05:15:54;15.40;99.90
7000;DHT22;3540;53.242;10.408;2023-10-13T05:18:38;15.50;99.90
7000;DHT22;3540;53.242;10.408;2023-10-13T05:21:22;15.50;99.90
7000;DHT22;3540;53.242;10.408;2023-10-13T05:24:07;15.50;99.90
7000;DHT22;3540;53.242;10.408;2023-10-13T05:26:52;15.50;99.90
7000;DHT22;3540;53.242;10.408;2023-10-13T05:29:44;15.50;99.90
7000;DHT22;3540;53.242;10.408;2023-10-13T05:32:28;15.60;99.90
7000;DHT22;3540;53.242;10.408;2023-10-13T05:35:13;15.60;99.90
7000;DHT22;3540;53.242;10.408;2023-10-13T05:37:58;15.60;99.90
7000;DHT22;3540;53.242;10.408;2023-10-13T05:43:41;15.70;99.90
7000;DHT22;3540;53.242;10.408;2023-10-13T05:46:25;15.70;99.90
7000;DHT22;3540;53.242;10.408;2023-10-13T05:48:51;15.70;99.90
7000;DHT22;3540;53.242;10.408;2023-10-13T05:51:34;15.80;99.90
7000;DHT22;3540;53.242;10.408;2023-10-13T05:54:13;15.70;99.90
7000;DHT22;3540;53.242;10.408;2023-10-13T05:59:27;15.80;99.90
7000;DHT22;3540;53.242;10.408;2023-10-13T06:02:12;15.80;99.90
7000;DHT22;3540;53.242;10.408;2023-10-13T06:04:56;15.80;99.90
7000;DHT22;3540;53.242;10.408;2023-10-13T06:07:41;15.80;99.90
7000;DHT22;3540;53.242;10.408;2023-10-13T06:10:25;15.80;99.90
7000;DHT22;3540;53.242;10.408;2023-10-13T06:13:09;15.80;99.90
7000;DHT22;3540;53.242;10.408;2023-10-13T06:15:53;15.80;99.90
7000;DHT22;3540;53.242;10.408;2023-10-13T06:18:37;15.80;99.90
7000;DHT22;3540;53.242;10.408;2023-10-13T06:21:21;15.90;99.90
7000;DHT22;3540;53.242;10.408;2023-10-13T06:24:07;15.90;99.90
7000;DHT22;3540;53.242;10.408;2023-10-13T06:26:51;15.90;99.90
7000;DHT22;3540;53.242;10.408;2023-10-13T06:29:35;15.90;99.90
7000;DHT22;3540;53.242;10.408;2023-10-13T06:32:01;15.90;99.90
7000;DHT22;3540;53.242;10.408;2023-10-13T06:34:30;15.90;99.90
7000;DHT22;3540;53.242;10.408;2023-10-13T06:37:16;16.00;99.90
7000;DHT22;3540;53.242;10.408;2023-10-13T06:39:55;16.00;99.90
7000;DHT22;3540;53.242;10.408;2023-10-13T06:42:40;16.00;99.90
7000;DHT22;3540;53.242;10.408;2023-10-13T06:45:08;16.00;99.90
7000;DHT22;3540;53.242;10.408;2023-10-13T06:47:37;16.00;99.90
7000;DHT22;3540;53.242;10.408;2023-10-13T06:50:09;16.00;99.90
7000;DHT22;3540;53.242;10.408;2023-10-13T06:52:42;16.00;99.90
7000;DHT22;3540;53.242;10.408;2023-10-13T06:55:08;16.00;99.90
7000;DHT22;3540;53.242;10.408;2023-10-13T06:57:44;16.10;99.90
7000;DHT22;3540;53.242;10.408;2023-10-13T07:00:10;16.10;99.90
7000;DHT22;3540;53.242;10.408;2023-10-13T07:02:46;16.10;99.90
7000;DHT22;3540;53.242;10.408;2023-10-13T07:05:12;16.10;99.90
7000;DHT22;3540;53.242;10.408;2023-10-13T07:07:40;16.10;99.90
7000;DHT22;3540;53.242;10.408;2023-10-13T07:10:10;16.10;99.90
7000;DHT22;3540;53.242;10.408;2023-10-13T07:12:40;16.10;99.90
7000;DHT22;3540;53.242;10.408;2023-10-13T07:15:12;16.10;99.90
7000;DHT22;3540;53.242;10.408;2023-10-13T07:17:43;16.10;99.90
7000;DHT22;3540;53.242;10.408;2023-10-13T07:20:10;16.10;99.90
7000;DHT22;3540;53.242;10.408;2023-10-13T07:22:50;16.10;99.90
7000;DHT22;3540;53.242;10.408;2023-10-13T07:25:32;16.10;99.90
7000;DHT22;3540;53.242;10.408;2023-10-13T07:28:02;16.10;99.90
7000;DHT22;3540;53.242;10.408;2023-10-13T07:30:33;16.10;99.90
7000;DHT22;3540;53.242;10.408;2023-10-13T07:33:07;16.10;99.90
7000;DHT22;3540;53.242;10.408;2023-10-13T07:35:36;16.10;99.90
7000;DHT22;3540;53.242;10.408;2023-10-13T07:38:02;16.10;99.90
7000;DHT22;3540;53.242;10.408;2023-10-13T07:40:33;16.20;99.90
7000;DHT22;3540;53.242;10.408;2023-10-13T07:42:58;16.20;99.90
7000;DHT22;3540;53.242;10.408;2023-10-13T07:45:29;16.20;99.90
7000;DHT22;3540;53.242;10.408;2023-10-13T07:48:07;16.20;99.90
7000;DHT22;3540;53.242;10.408;2023-10-13T07:50:57;16.20;99.90
7000;DHT22;3540;53.242;10.408;2023-10-13T07:53:23;16.20;99.90
7000;DHT22;3540;53.242;10.408;2023-10-13T07:55:50;16.20;99.90
7000;DHT22;3540;53.242;10.408;2023-10-13T07:58:22;16.20;99.90
7000;DHT22;3540;53.242;10.408;2023-10-13T08:00:54;16.20;99.90
7000;DHT22;3540;53.242;10.408;2023-10-13T08:03:32;16.30;99.90
7000;DHT22;3540;53.242;10.408;2023-10-13T08:05:58;16.30;99.90
7000;DHT22;3540;53.242;10.408;2023-10-13T08:08:27;16.30;99.90
7000;DHT22;3540;53.242;10.408;2023-10-13T08:11:10;16.30;99.90
7000;DHT22;3540;53.242;10.408;2023-10-13T08:13:57;16.20;99.90
7000;DHT22;3540;53.242;10.408;2023-10-13T08:16:42;16.20;99.90
7000;DHT22;3540;53.242;10.408;2023-10-13T08:19:12;16.20;99.90
7000;DHT22;3540;53.242;10.408;2023-10-13T08:21:41;16.30;99.90
7000;DHT22;3540;53.242;10.408;2023-10-13T08:24:15;16.20;99.90
7000;DHT22;3540;53.242;10.408;2023-10-13T08:26:41;16.30;99.90
7000;DHT22;3540;53.242;10.408;2023-10-13T08:29:25;16.20;99.90
7000;DHT22;3540;53.242;10.408;2023-10-13T08:31:54;16.20;99.90
7000;DHT22;3540;53.242;10.408;2023-10-13T08:34:29;16.20;99.90
7000;DHT22;3540;53.242;10.408;2023-10-13T08:37:06;16.20;99.90
7000;DHT22;3540;53.242;10.408;2023-10-13T08:39:45;16.20;99.90
7000;DHT22;3540;53.242;10.408;2023-10-13T08:42:38;16.10;99.90
7000;DHT22;3540;53.242;10.408;2023-10-13T08:45:13;16.10;99.90
7000;DHT22;3540;53.242;10.408;2023-10-13T08:47:48;16.10;99.90
7000;DHT22;3540;53.242;10.408;2023-10-13T08:50:22;16.00;99.90
7000;DHT22;3540;53.242;10.408;2023-10-13T08:56:07;16.00;99.90
7000;DHT22;3540;53.242;10.408;2023-10-13T08:58:41;16.00;99.90
7000;DHT22;3540;53.242;10.408;2023-10-13T09:01:35;16.00;99.90
7000;DHT22;3540;53.242;10.408;2023-10-13T09:04:36;16.00;99.90
7000;DHT22;3540;53.242;10.408;2023-10-13T09:07:04;16.10;99.90
7000;DHT22;3540;53.242;10.408;2023-10-13T09:14:59;16.20;99.90
7000;DHT22;3540;53.242;10.408;2023-10-13T09:17:31;16.20;99.90
7000;DHT22;3540;53.242;10.408;2023-10-13T09:20:07;16.30;99.90
7000;DHT22;3540;53.242;10.408;2023-10-13T09:25:27;16.40;99.90
7000;DHT22;3540;53.242;10.408;2023-10-13T09:27:58;16.40;99.90
7000;DHT22;3540;53.242;10.408;2023-10-13T09:30:26;16.50;99.90
7000;DHT22;3540;53.242;10.408;2023-10-13T09:33:00;16.60;99.90
7000;DHT22;3540;53.242;10.408;2023-10-13T09:35:35;16.60;99.90
7000;DHT22;3540;53.242;10.408;2023-10-13T09:38:03;16.70;99.90
7000;DHT22;3540;53.242;10.408;2023-10-13T09:40:30;16.80;99.90
7000;DHT22;3540;53.242;10.408;2023-10-13T09:43:01;16.90;99.90
7000;DHT22;3540;53.242;10.408;2023-10-13T09:45:33;17.00;99.90
7000;DHT22;3540;53.242;10.408;2023-10-13T09:48:03;17.10;99.90
7000;DHT22;3540;53.242;10.408;2023-10-13T09:50:43;17.20;99.90
7000;DHT22;3540;53.242;10.408;2023-10-13T09:53:12;17.20;99.90
7000;DHT22;3540;53.242;10.408;2023-10-13T09:55:46;17.30;99.90
7000;DHT22;3540;53.242;10.408;2023-10-13T09:58:14;17.30;99.90
7000;DHT22;3540;53.242;10.408;2023-10-13T10:00:48;17.30;99.90
7000;DHT22;3540;53.242;10.408;2023-10-13T10:03:23;17.30;99.90
7000;DHT22;3540;53.242;10.408;2023-10-13T10:05:57;17.30;99.90
7000;DHT22;3540;53.242;10.408;2023-10-13T10:08:29;17.30;99.90
7000;DHT22;3540;53.242;10.408;2023-10-13T10:13:52;17.30;99.90
7000;DHT22;3540;53.242;10.408;2023-10-13T10:19:25;17.30;99.90
7000;DHT22;3540;53.242;10.408;2023-10-13T10:22:04;17.30;99.90
7000;DHT22;3540;53.242;10.408;2023-10-13T10:24:42;17.40;99.90
7000;DHT22;3540;53.242;10.408;2023-10-13T10:27:11;17.40;99.90
7000;DHT22;3540;53.242;10.408;2023-10-13T10:29:53;17.40;99.90
7000;DHT22;3540;53.242;10.408;2023-10-13T10:32:19;17.50;99.90
7000;DHT22;3540;53.242;10.408;2023-10-13T10:34:45;17.50;99.90
7000;DHT22;3540;53.242;10.408;2023-10-13T10:37:12;17.60;99.90
7000;DHT22;3540;53.242;10.408;2023-10-13T10:39:38;17.70;99.90
7000;DHT22;3540;53.242;10.408;2023-10-13T10:42:15;17.70;99.90
7000;DHT22;3540;53.242;10.408;2023-10-13T10:44:43;17.90;99.90
7000;DHT22;3540;53.242;10.408;2023-10-13T10:47:14;17.90;99.90
7000;DHT22;3540;53.242;10.408;2023-10-13T10:50:02;18.00;99.90
7000;DHT22;3540;53.242;10.408;2023-10-13T10:52:45;18.20;99.90
7000;DHT22;3540;53.242;10.408;2023-10-13T10:55:12;18.20;99.90
7000;DHT22;3540;53.242;10.408;2023-10-13T10:57:40;18.20;99.90
7000;DHT22;3540;53.242;10.408;2023-10-13T11:00:19;18.20;99.90
7000;DHT22;3540;53.242;10.408;2023-10-13T11:02:57;18.40;99.90
7000;DHT22;3540;53.242;10.408;2023-10-13T11:05:23;18.70;99.90
7000;DHT22;3540;53.242;10.408;2023-10-13T11:07:58;18.90;99.90
7000;DHT22;3540;53.242;10.408;2023-10-13T11:10:23;18.90;99.90
7000;DHT22;3540;53.242;10.408;2023-10-13T11:12:57;19.00;99.90
7000;DHT22;3540;53.242;10.408;2023-10-13T11:15:44;18.90;99.90
7000;DHT22;3540;53.242;10.408;2023-10-13T11:18:11;18.80;99.90
7000;DHT22;3540;53.242;10.408;2023-10-13T11:20:49;18.90;99.90
7000;DHT22;3540;53.242;10.408;2023-10-13T11:23:21;19.00;99.90
7000;DHT22;3540;53.242;10.408;2023-10-13T11:25:57;19.00;99.90
7000;DHT22;3540;53.242;10.408;2023-10-13T11:28:24;19.10;99.90
7000;DHT22;3540;53.242;10.408;2023-10-13T11:30:54;19.20;99.90
7000;DHT22;3540;53.242;10.408;2023-10-13T11:33:25;19.20;99.90
7000;DHT22;3540;53.242;10.408;2023-10-13T11:35:53;19.20;99.90
7000;DHT22;3540;53.242;10.408;2023-10-13T11:43:36;19.30;99.90
7000;DHT22;3540;53.242;10.408;2023-10-13T11:46:09;19.50;99.90
7000;DHT22;3540;53.242;10.408;2023-10-13T11:48:35;19.60;99.90
7000;DHT22;3540;53.242;10.408;2023-10-13T11:51:08;19.70;99.90
7000;DHT22;3540;53.242;10.408;2023-10-13T11:53:38;19.70;99.90
7000;DHT22;3540;53.242;10.408;2023-10-13T11:56:05;19.70;99.90
7000;DHT22;3540;53.242;10.408;2023-10-13T11:58:38;19.80;99.90
7000;DHT22;3540;53.242;10.408;2023-10-13T12:01:04;19.80;99.90
7000;DHT22;3540;53.242;10.408;2023-10-13T12:03:39;19.80;99.90
7000;DHT22;3540;53.242;10.408;2023-10-13T12:06:24;20.10;99.90
7000;DHT22;3540;53.242;10.408;2023-10-13T12:09:07;20.20;99.90
7000;DHT22;3540;53.242;10.408;2023-10-13T12:11:46;20.40;99.90
7000;DHT22;3540;53.242;10.408;2023-10-13T12:14:13;20.20;99.90
7000;DHT22;3540;53.242;10.408;2023-10-13T12:16:47;20.10;99.90
7000;DHT22;3540;53.242;10.408;2023-10-13T12:19:21;20.10;99.90
7000;DHT22;3540;53.242;10.408;2023-10-13T12:21:50;20.30;99.90
7000;DHT22;3540;53.242;10.408;2023-10-13T12:24:20;20.70;99.90
7000;DHT22;3540;53.242;10.408;2023-10-13T12:27:06;20.90;99.90
7000;DHT22;3540;53.242;10.408;2023-10-13T12:32:12;21.10;99.90
7000;DHT22;3540;53.242;10.408;2023-10-13T12:34:39;21.30;99.90
7000;DHT22;3540;53.242;10.408;2023-10-13T12:37:30;21.30;99.90
7000;DHT22;3540;53.242;10.408;2023-10-13T12:40:17;21.20;99.90
7000;DHT22;3540;53.242;10.408;2023-10-13T12:43:02;21.00;99.90
7000;DHT22;3540;53.242;10.408;2023-10-13T12:45:48;20.90;99.90
7000;DHT22;3540;53.242;10.408;2023-10-13T12:48:33;21.00;99.90
7000;DHT22;3540;53.242;10.408;2023-10-13T12:51:18;21.20;99.90
7000;DHT22;3540;53.242;10.408;2023-10-13T12:54:01;21.30;99.90
7000;DHT22;3540;53.242;10.408;2023-10-13T12:56:31;21.20;99.90
7000;DHT22;3540;53.242;10.408;2023-10-13T12:58:57;21.00;99.90
7000;DHT22;3540;53.242;10.408;2023-10-13T13:01:24;21.00;99.90
7000;DHT22;3540;53.242;10.408;2023-10-13T13:03:52;21.00;99.90
7000;DHT22;3540;53.242;10.408;2023-10-13T13:06:25;20.90;99.90
7000;DHT22;3540;53.242;10.408;2023-10-13T13:08:58;21.00;99.90
7000;DHT22;3540;53.242;10.408;2023-10-13T13:11:27;20.90;99.90
7000;DHT22;3540;53.242;10.408;2023-10-13T13:13:55;21.00;99.90
7000;DHT22;3540;53.242;10.408;2023-10-13T13:16:21;21.00;99.90
7000;DHT22;3540;53.242;10.408;2023-10-13T13:18:50;21.00;99.90
7000;DHT22;3540;53.242;10.408;2023-10-13T13:21:16;21.00;99.90
7000;DHT22;3540;53.242;10.408;2023-10-13T13:23:51;21.10;99.90
7000;DHT22;3540;53.242;10.408;2023-10-13T13:26:20;21.20;99.90
7000;DHT22;3540;53.242;10.408;2023-10-13T13:28:46;21.30;99.90
7000;DHT22;3540;53.242;10.408;2023-10-13T13:31:16;21.40;99.90
7000;DHT22;3540;53.242;10.408;2023-10-13T13:33:42;21.40;99.90
7000;DHT22;3540;53.242;10.408;2023-10-13T13:36:11;21.40;99.90
7000;DHT22;3540;53.242;10.408;2023-10-13T13:38:39;21.60;99.90
7000;DHT22;3540;53.242;10.408;2023-10-13T13:41:14;21.50;99.90
7000;DHT22;3540;53.242;10.408;2023-10-13T13:43:47;21.30;99.90
7000;DHT22;3540;53.242;10.408;2023-10-13T13:46:17;21.30;99.90
7000;DHT22;3540;53.242;10.408;2023-10-13T13:48:43;21.30;99.90
7000;DHT22;3540;53.242;10.408;2023-10-13T13:51:13;21.30;99.90
7000;DHT22;3540;53.242;10.408;2023-10-13T13:53:45;21.20;99.90
7000;DHT22;3540;53.242;10.408;2023-10-13T13:56:14;21.10;99.90
7000;DHT22;3540;53.242;10.408;2023-10-13T14:01:10;21.20;99.90
7000;DHT22;3540;53.242;10.408;2023-10-13T14:03:41;21.40;99.90
7000;DHT22;3540;53.242;10.408;2023-10-13T14:06:13;21.40;99.90
7000;DHT22;3540;53.242;10.408;2023-10-13T14:08:58;21.40;99.90
7000;DHT22;3540;53.242;10.408;2023-10-13T14:11:50;21.20;99.90
7000;DHT22;3540;53.242;10.408;2023-10-13T14:14:38;21.10;99.90
7000;DHT22;3540;53.242;10.408;2023-10-13T14:17:11;21.10;99.90
7000;DHT22;3540;53.242;10.408;2023-10-13T14:19:37;21.00;99.90
7000;DHT22;3540;53.242;10.408;2023-10-13T14:22:06;21.10;99.90
7000;DHT22;3540;53.242;10.408;2023-10-13T14:24:34;21.10;99.90
7000;DHT22;3540;53.242;10.408;2023-10-13T14:27:02;21.10;99.90
7000;DHT22;3540;53.242;10.408;2023-10-13T14:29:38;21.10;99.90
7000;DHT22;3540;53.242;10.408;2023-10-13T14:32:12;21.10;99.90
7000;DHT22;3540;53.242;10.408;2023-10-13T14:34:43;21.20;99.90
7000;DHT22;3540;53.242;10.408;2023-10-13T14:37:09;21.30;99.90
7000;DHT22;3540;53.242;10.408;2023-10-13T14:39:42;21.40;99.90
7000;DHT22;3540;53.242;10.408;2023-10-13T14:42:08;21.50;99.90
7000;DHT22;3540;53.242;10.408;2023-10-13T14:44:34;21.50;99.90
7000;DHT22;3540;53.242;10.408;2023-10-13T14:47:03;21.40;99.90
7000;DHT22;3540;53.242;10.408;2023-10-13T14:49:33;21.40;99.90
7000;DHT22;3540;53.242;10.408;2023-10-13T14:52:01;21.40;99.90
7000;DHT22;3540;53.242;10.408;2023-10-13T14:54:26;21.30;99.90
7000;DHT22;3540;53.242;10.408;2023-10-13T14:56:59;21.40;99.90
7000;DHT22;3540;53.242;10.408;2023-10-13T14:59:25;21.30;99.90
7000;DHT22;3540;53.242;10.408;2023-10-13T15:01:51;21.30;99.90
7000;DHT22;3540;53.242;10.408;2023-10-13T15:04:16;21.30;99.90
7000;DHT22;3540;53.242;10.408;2023-10-13T15:06:42;21.30;99.90
7000;DHT22;3540;53.242;10.408;2023-10-13T15:09:09;21.30;99.90
7000;DHT22;3540;53.242;10.408;2023-10-13T15:11:36;21.30;99.90
7000;DHT22;3540;53.242;10.408;2023-10-13T15:14:05;21.40;99.90
7000;DHT22;3540;53.242;10.408;2023-10-13T15:16:32;21.50;99.90
7000;DHT22;3540;53.242;10.408;2023-10-13T15:18:59;21.50;99.90
7000;DHT22;3540;53.242;10.408;2023-10-13T15:21:26;21.50;99.90
7000;DHT22;3540;53.242;10.408;2023-10-13T15:24:02;21.40;99.90
7000;DHT22;3540;53.242;10.408;2023-10-13T15:26:45;21.50;99.90
7000;DHT22;3540;53.242;10.408;2023-10-13T15:29:17;21.40;99.90
7000;DHT22;3540;53.242;10.408;2023-10-13T15:31:46;21.40;99.90
7000;DHT22;3540;53.242;10.408;2023-10-13T15:34:31;21.40;99.90
7000;DHT22;3540;53.242;10.408;2023-10-13T15:36:59;21.30;99.90
7000;DHT22;3540;53.242;10.408;2023-10-13T15:39:25;21.30;99.90
7000;DHT22;3540;53.242;10.408;2023-10-13T15:41:55;21.20;99.90
7000;DHT22;3540;53.242;10.408;2023-10-13T15:44:26;21.20;99.90
7000;DHT22;3540;53.242;10.408;2023-10-13T15:46:56;21.20;99.90
7000;DHT22;3540;53.242;10.408;2023-10-13T15:49:22;21.20;99.90
7000;DHT22;3540;53.242;10.408;2023-10-13T15:51:48;21.30;99.90
7000;DHT22;3540;53.242;10.408;2023-10-13T15:54:16;21.20;99.90
7000;DHT22;3540;53.242;10.408;2023-10-13T15:56:49;21.20;99.90
7000;DHT22;3540;53.242;10.408;2023-10-13T15:59:16;21.20;99.90
7000;DHT22;3540;53.242;10.408;2023-10-13T16:01:42;21.30;99.90
7000;DHT22;3540;53.242;10.408;2023-10-13T16:04:08;21.30;99.90
7000;DHT22;3540;53.242;10.408;2023-10-13T16:06:43;21.30;99.90
7000;DHT22;3540;53.242;10.408;2023-10-13T16:09:15;21.30;99.90
7000;DHT22;3540;53.242;10.408;2023-10-13T16:11:45;21.40;99.90
7000;DHT22;3540;53.242;10.408;2023-10-13T16:14:12;21.40;99.90
7000;DHT22;3540;53.242;10.408;2023-10-13T16:16:46;21.40;99.90
7000;DHT22;3540;53.242;10.408;2023-10-13T16:19:16;21.40;99.90
7000;DHT22;3540;53.242;10.408;2023-10-13T16:21:52;21.40;99.90
7000;DHT22;3540;53.242;10.408;2023-10-13T16:24:18;21.40;99.90
7000;DHT22;3540;53.242;10.408;2023-10-13T16:26:45;21.40;99.90
7000;DHT22;3540;53.242;10.408;2023-10-13T16:29:15;21.50;99.90
7000;DHT22;3540;53.242;10.408;2023-10-13T16:31:40;21.50;99.90
7000;DHT22;3540;53.242;10.408;2023-10-13T16:34:19;21.40;99.90
7000;DHT22;3540;53.242;10.408;2023-10-13T16:36:48;21.40;99.90
7000;DHT22;3540;53.242;10.408;2023-10-13T16:39:19;21.40;99.90
7000;DHT22;3540;53.242;10.408;2023-10-13T16:41:48;21.40;99.90
7000;DHT22;3540;53.242;10.408;2023-10-13T16:44:15;21.40;99.90
7000;DHT22;3540;53.242;10.408;2023-10-13T16:46:41;21.50;99.90
7000;DHT22;3540;53.242;10.408;2023-10-13T16:49:07;21.50;99.90
7000;DHT22;3540;53.242;10.408;2023-10-13T16:51:34;21.40;99.90
7000;DHT22;3540;53.242;10.408;2023-10-13T16:54:00;21.50;99.90
7000;DHT22;3540;53.242;10.408;2023-10-13T16:56:25;21.50;99.90
7000;DHT22;3540;53.242;10.408;2023-10-13T16:58:51;21.60;99.90
7000;DHT22;3540;53.242;10.408;2023-10-13T17:01:20;21.60;99.90
7000;DHT22;3540;53.242;10.408;2023-10-13T17:03:47;21.60;99.90
7000;DHT22;3540;53.242;10.408;2023-10-13T17:06:13;21.50;99.90